Time;durP1;ratioP1;P1;durP2;ratioP2;P2;SDS_P1;SDS_P2;PMS_P1;PMS_P2;Temp;Humidity;BMP_temperature;BMP_pressure;BME280_temperature;BME280_humidity;BME280_pressure;Samples;Min_cycle;Max_cycle;Signal;HPM_P1;HPM_P2
2021/09/27 00:01:05;;;;;;;45.33;26.17;;;;;;;;;;4950203;28;20042;-57
2021/09/27 00:03:30;;;;;;;48.40;27.33;;;;;;;;;;4950869;28;20138;-57
2021/09/27 00:05:55;;;;;;;48.13;26.23;;;;;;;;;;4956130;28;20422;-57
2021/09/27 00:08:20;;;;;;;43.78;25.45;;;;;;;;;;4951320;28;20115;-56
2021/09/27 00:10:53;;;;;;;45.15;24.17;;;;;;;;;;4950803;28;20042;-57
2021/09/27 00:13:18;;;;;;;43.67;21.77;;;;;;;;;;4951222;28;20597;-56
2021/09/27 00:15:45;;;;;;;38.65;22.40;;;;;;;;;;4956035;28;20433;-57
2021/09/27 00:18:10;;;;;;;41.40;21.75;;;;;;;;;;4955668;28;20015;-56
2021/09/27 00:20:39;;;;;;;37.95;21.77;;;;;;;;;;4949707;28;20035;-57
2021/09/27 00:23:04;;;;;;;38.63;22.33;;;;;;;;;;4950748;28;20350;-57
2021/09/27 00:25:29;;;;;;;34.35;20.20;;;;;;;;;;4954350;28;20043;-57
2021/09/27 00:27:55;;;;;;;36.20;20.40;;;;;;;;;;4948434;28;20162;-56
2021/09/27 00:30:20;;;;;;;32.60;20.17;;;;;;;;;;4962146;28;20116;-57
2021/09/27 00:32:45;;;;;;;37.60;19.70;;;;;;;;;;4955491;28;20134;-57
2021/09/27 00:35:11;;;;;;;33.65;19.92;;;;;;;;;;4949934;28;20093;-57
2021/09/27 00:37:36;;;;;;;36.70;19.83;;;;;;;;;;4952639;28;20086;-57
2021/09/27 00:40:02;;;;;;;38.08;21.35;;;;;;;;;;4949791;28;20238;-56
2021/09/27 00:42:28;;;;;;;36.47;21.15;;;;;;;;;;4952207;28;20397;-56
2021/09/27 00:44:53;;;;;;;34.45;20.38;;;;;;;;;;4949902;28;20031;-56
2021/09/27 00:47:21;;;;;;;34.47;20.95;;;;;;;;;;4957756;28;20525;-56
2021/09/27 00:49:48;;;;;;;33.75;19.70;;;;;;;;;;4955043;28;20035;-56
2021/09/27 00:52:13;;;;;;;34.10;18.83;;;;;;;;;;4954130;28;20047;-56
2021/09/27 00:54:38;;;;;;;32.70;17.98;;;;;;;;;;4950664;28;20026;-56
2021/09/27 00:57:06;;;;;;;36.50;21.00;;;;;;;;;;4949836;28;20050;-55
2021/09/27 00:59:31;;;;;;;33.70;19.88;;;;;;;;;;4949571;28;20038;-56
2021/09/27 01:01:56;;;;;;;37.50;21.65;;;;;;;;;;4953811;28;20043;-56
2021/09/27 01:04:21;;;;;;;35.75;21.30;;;;;;;;;;4954505;28;20038;-56
2021/09/27 01:07:06;;;;;;;39.65;20.40;;;;;;;;;;4955102;28;20042;-56
2021/09/27 01:10:03;;;;;;;40.03;20.75;;;;;;;;;;4949188;28;20023;-57
2021/09/27 01:12:46;;;;;;;42.35;22.52;;;;;;;;;;4946834;28;20106;-56
2021/09/27 01:15:15;;;;;;;46.67;22.98;;;;;;;;;;4948269;28;20487;-56
2021/09/27 01:17:46;;;;;;;42.40;22.27;;;;;;;;;;4936669;28;20518;-56
2021/09/27 01:20:14;;;;;;;42.28;21.65;;;;;;;;;;4948766;28;20031;-56
2021/09/27 01:22:55;;;;;;;45.17;22.65;;;;;;;;;;4953293;28;20026;-57
2021/09/27 01:25:20;;;;;;;41.58;22.40;;;;;;;;;;4949232;28;20520;-57
2021/09/27 01:27:52;;;;;;;37.92;21.77;;;;;;;;;;4948367;28;20019;-57
2021/09/27 01:30:36;;;;;;;46.03;22.58;;;;;;;;;;4956574;28;20046;-57
2021/09/27 01:33:02;;;;;;;38.35;21.50;;;;;;;;;;4952760;28;20398;-56
2021/09/27 01:35:27;;;;;;;45.55;22.02;;;;;;;;;;4943551;28;20047;-57
2021/09/27 01:38:11;;;;;;;36.60;20.20;;;;;;;;;;4954622;28;20039;-57
2021/09/27 01:40:45;;;;;;;34.35;19.48;;;;;;;;;;4953413;28;20054;-57
2021/09/27 01:43:14;;;;;;;33.72;19.63;;;;;;;;;;4952857;28;20097;-56
2021/09/27 01:45:57;;;;;;;30.23;18.92;;;;;;;;;;4956397;28;20039;-57
2021/09/27 01:48:28;;;;;;;39.42;18.92;;;;;;;;;;4952396;28;20536;-57
2021/09/27 01:50:58;;;;;;;34.28;18.92;;;;;;;;;;4954282;28;20038;-56
2021/09/27 01:53:28;;;;;;;33.92;19.67;;;;;;;;;;4952002;28;20043;-57
2021/09/27 01:55:53;;;;;;;37.95;18.90;;;;;;;;;;4961886;28;20444;-57
2021/09/27 01:58:27;;;;;;;39.53;19.45;;;;;;;;;;4955455;28;20023;-56
2021/09/27 02:00:54;;;;;;;65.15;18.27;;;;;;;;;;4956459;28;20437;-56
2021/09/27 02:03:38;;;;;;;81.70;18.92;;;;;;;;;;4952764;28;20481;-57
2021/09/27 02:06:06;;;;;;;79.88;18.33;;;;;;;;;;4960538;28;20048;-57
2021/09/27 02:08:37;;;;;;;58.05;18.45;;;;;;;;;;4962275;28;20051;-57
2021/09/27 02:11:06;;;;;;;58.95;19.38;;;;;;;;;;4951950;28;20604;-57
2021/09/27 02:13:49;;;;;;;43.05;18.60;;;;;;;;;;4956183;28;20046;-56
2021/09/27 02:16:15;;;;;;;32.38;17.08;;;;;;;;;;4952308;28;20102;-57
2021/09/27 02:18:52;;;;;;;30.80;17.30;;;;;;;;;;4952375;28;20031;-57
2021/09/27 02:21:19;;;;;;;31.80;16.98;;;;;;;;;;4960022;28;20043;-57
2021/09/27 02:23:54;;;;;;;34.15;18.10;;;;;;;;;;4950994;28;20031;-57
2021/09/27 02:26:20;;;;;;;34.45;17.70;;;;;;;;;;4958192;28;20087;-57
2021/09/27 02:28:45;;;;;;;35.03;18.90;;;;;;;;;;4953311;28;20621;-57
2021/09/27 02:31:10;;;;;;;37.30;18.98;;;;;;;;;;4954945;28;20047;-57
2021/09/27 02:33:49;;;;;;;35.83;19.45;;;;;;;;;;4956131;28;20430;-57
2021/09/27 02:36:15;;;;;;;29.80;17.52;;;;;;;;;;4949460;28;20031;-57
2021/09/27 02:38:48;;;;;;;31.25;16.73;;;;;;;;;;4952563;28;20027;-57
2021/09/27 02:41:13;;;;;;;31.77;18.63;;;;;;;;;;4951399;28;20528;-57
2021/09/27 02:43:38;;;;;;;33.50;19.25;;;;;;;;;;4951673;28;20656;-57
2021/09/27 02:46:04;;;;;;;33.55;19.02;;;;;;;;;;4954482;28;20045;-56
2021/09/27 02:48:38;;;;;;;29.95;18.58;;;;;;;;;;4954769;28;20035;-57
2021/09/27 02:51:03;;;;;;;30.45;18.90;;;;;;;;;;4956020;28;20127;-57
2021/09/27 02:53:29;;;;;;;31.60;18.30;;;;;;;;;;4951841;28;20039;-57
2021/09/27 02:56:12;;;;;;;28.85;18.73;;;;;;;;;;4957460;28;20210;-57
2021/09/27 02:58:38;;;;;;;29.58;18.27;;;;;;;;;;4951494;28;20033;-57
2021/09/27 03:01:04;;;;;;;26.75;16.73;;;;;;;;;;4953035;28;20031;-57
2021/09/27 03:03:48;;;;;;;24.33;16.42;;;;;;;;;;4963514;28;20031;-57
2021/09/27 03:06:30;;;;;;;27.05;15.60;;;;;;;;;;4950729;28;20489;-57
2021/09/27 03:08:59;;;;;;;26.05;16.02;;;;;;;;;;4959023;28;20034;-57
2021/09/27 03:11:38;;;;;;;25.95;15.00;;;;;;;;;;4952240;28;20552;-57
2021/09/27 03:14:03;;;;;;;28.23;16.05;;;;;;;;;;4955096;28;20015;-57
2021/09/27 03:16:31;;;;;;;26.70;15.55;;;;;;;;;;4950550;28;20401;-57
2021/09/27 03:19:00;;;;;;;22.00;14.05;;;;;;;;;;4956219;28;20393;-57
2021/09/27 03:21:33;;;;;;;24.77;15.57;;;;;;;;;;4951890;28;20130;-57
2021/09/27 03:23:58;;;;;;;23.70;14.23;;;;;;;;;;4957675;28;20027;-57
2021/09/27 03:26:31;;;;;;;26.50;15.43;;;;;;;;;;4954013;28;20101;-57
2021/09/27 03:29:17;;;;;;;26.02;14.75;;;;;;;;;;4951452;28;20822;-57
2021/09/27 03:32:01;;;;;;;25.88;14.60;;;;;;;;;;4940543;28;20463;-57
2021/09/27 03:34:26;;;;;;;23.58;14.38;;;;;;;;;;4963202;28;20039;-57
2021/09/27 03:37:11;;;;;;;25.88;12.95;;;;;;;;;;4956755;28;20390;-57
2021/09/27 03:39:56;;;;;;;22.35;13.68;;;;;;;;;;4954197;28;20490;-57
2021/09/27 03:42:23;;;;;;;19.40;13.10;;;;;;;;;;4951556;28;20047;-57
2021/09/27 03:45:07;;;;;;;24.30;14.00;;;;;;;;;;4934104;29;20023;-57
2021/09/27 03:47:32;;;;;;;27.42;16.08;;;;;;;;;;4950788;28;20063;-57
2021/09/27 03:50:13;;;;;;;36.55;17.27;;;;;;;;;;4955010;28;20026;-57
2021/09/27 03:52:41;;;;;;;42.38;18.77;;;;;;;;;;4956619;28;20062;-57
2021/09/27 03:55:28;;;;;;;48.78;20.77;;;;;;;;;;4949115;28;20327;-57
2021/09/27 03:57:57;;;;;;;45.20;18.92;;;;;;;;;;4953663;28;20078;-57
2021/09/27 04:00:26;;;;;;;43.63;19.70;;;;;;;;;;4954775;28;20040;-57
2021/09/27 04:03:04;;;;;;;41.22;19.75;;;;;;;;;;4957140;28;20551;-57
2021/09/27 04:05:48;;;;;;;36.55;18.27;;;;;;;;;;4950121;28;20039;-57
2021/09/27 04:08:17;;;;;;;34.63;18.90;;;;;;;;;;4950452;28;20026;-57
2021/09/27 04:11:01;;;;;;;33.25;17.25;;;;;;;;;;4949218;28;20043;-57
2021/09/27 04:13:35;;;;;;;26.48;16.52;;;;;;;;;;4958119;28;20071;-57
2021/09/27 04:16:02;;;;;;;23.52;14.65;;;;;;;;;;4949786;28;20039;-57
2021/09/27 04:18:31;;;;;;;26.27;15.48;;;;;;;;;;4959489;28;20031;-57
2021/09/27 04:20:57;;;;;;;26.42;15.85;;;;;;;;;;4938024;28;20043;-57
2021/09/27 04:23:26;;;;;;;22.45;14.23;;;;;;;;;;4951044;28;20541;-57
2021/09/27 04:25:55;;;;;;;20.73;13.95;;;;;;;;;;4953027;28;20484;-57
2021/09/27 04:28:29;;;;;;;23.48;14.30;;;;;;;;;;4950956;28;20125;-58
2021/09/27 04:31:09;;;;;;;24.27;14.65;;;;;;;;;;4949781;28;20225;-57
2021/09/27 04:33:37;;;;;;;22.63;14.13;;;;;;;;;;4955144;28;20398;-57
2021/09/27 04:36:12;;;;;;;19.83;12.85;;;;;;;;;;4950218;28;20032;-58
2021/09/27 04:38:37;;;;;;;21.75;13.25;;;;;;;;;;4954338;28;20556;-57
2021/09/27 04:41:02;;;;;;;21.13;12.98;;;;;;;;;;4957676;28;20131;-57
2021/09/27 04:43:40;;;;;;;20.58;12.45;;;;;;;;;;4950267;28;20043;-56
2021/09/27 04:46:11;;;;;;;19.55;12.50;;;;;;;;;;4949876;28;20505;-56
2021/09/27 04:48:42;;;;;;;19.95;12.80;;;;;;;;;;4950939;28;20583;-57
2021/09/27 04:51:10;;;;;;;17.70;12.43;;;;;;;;;;4950757;28;20035;-57
2021/09/27 04:53:44;;;;;;;19.85;13.00;;;;;;;;;;4955177;28;20039;-57
2021/09/27 04:56:11;;;;;;;16.73;11.60;;;;;;;;;;4951555;28;20536;-56
2021/09/27 04:58:55;;;;;;;21.92;12.60;;;;;;;;;;4951195;28;20027;-56
2021/09/27 05:01:23;;;;;;;24.15;12.63;;;;;;;;;;4953643;28;20093;-57
2021/09/27 05:03:54;;;;;;;20.30;12.65;;;;;;;;;;4950856;28;20019;-57
2021/09/27 05:06:25;;;;;;;21.95;11.85;;;;;;;;;;4950763;28;20042;-57
2021/09/27 05:09:02;;;;;;;19.58;11.52;;;;;;;;;;4962736;28;20493;-59
2021/09/27 05:11:46;;;;;;;18.38;11.35;;;;;;;;;;4953450;28;20480;-57
2021/09/27 05:14:11;;;;;;;17.90;11.60;;;;;;;;;;4953816;28;20350;-56
2021/09/27 05:16:39;;;;;;;16.33;10.35;;;;;;;;;;4953280;28;20062;-56
2021/09/27 05:19:24;;;;;;;13.98;10.15;;;;;;;;;;4952314;28;20057;-57
2021/09/27 05:22:01;;;;;;;15.90;10.07;;;;;;;;;;4956333;28;20035;-57
2021/09/27 05:24:29;;;;;;;17.17;9.57;;;;;;;;;;4953650;28;20101;-56
2021/09/27 05:26:57;;;;;;;14.68;9.20;;;;;;;;;;4953150;28;20070;-57
2021/09/27 05:29:28;;;;;;;12.25;9.02;;;;;;;;;;4953712;28;20458;-57
2021/09/27 05:31:53;;;;;;;16.73;9.48;;;;;;;;;;4954069;28;20442;-57
2021/09/27 05:34:27;;;;;;;14.82;9.70;;;;;;;;;;4954696;28;20492;-57
2021/09/27 05:37:08;;;;;;;14.38;9.77;;;;;;;;;;4942519;28;20039;-57
2021/09/27 05:39:39;;;;;;;15.75;9.57;;;;;;;;;;4953369;28;20411;-57
2021/09/27 05:42:16;;;;;;;15.65;10.18;;;;;;;;;;4952858;28;20501;-57
2021/09/27 05:44:51;;;;;;;15.13;9.57;;;;;;;;;;4954277;28;20069;-57
2021/09/27 05:47:25;;;;;;;14.82;9.60;;;;;;;;;;4952131;28;20045;-57
2021/09/27 05:50:02;;;;;;;12.60;9.30;;;;;;;;;;4955777;28;20389;-57
2021/09/27 05:52:48;;;;;;;14.90;9.38;;;;;;;;;;4951788;28;20055;-57
2021/09/27 05:55:39;;;;;;;14.75;9.48;;;;;;;;;;4947351;28;20073;-57
2021/09/27 05:58:08;;;;;;;13.15;9.27;;;;;;;;;;4957091;28;20031;-57
2021/09/27 06:00:33;;;;;;;16.30;9.27;;;;;;;;;;4951802;28;20350;-58
2021/09/27 06:03:10;;;;;;;14.27;8.98;;;;;;;;;;4953454;28;20027;-57
2021/09/27 06:05:45;;;;;;;15.93;9.90;;;;;;;;;;4954548;28;20037;-59
2021/09/27 06:08:29;;;;;;;13.80;9.40;;;;;;;;;;4953336;28;20383;-56
2021/09/27 06:10:57;;;;;;;18.63;8.75;;;;;;;;;;4951106;28;20031;-57
2021/09/27 06:13:25;;;;;;;14.25;9.30;;;;;;;;;;4954565;28;20035;-56
2021/09/27 06:15:53;;;;;;;13.20;9.02;;;;;;;;;;4954931;28;20603;-56
2021/09/27 06:18:19;;;;;;;11.70;8.48;;;;;;;;;;4951767;28;20031;-57
2021/09/27 06:20:44;;;;;;;12.43;7.95;;;;;;;;;;4956797;28;20031;-57
2021/09/27 06:23:19;;;;;;;13.43;9.45;;;;;;;;;;4953120;28;20034;-56
2021/09/27 06:25:51;;;;;;;18.17;9.35;;;;;;;;;;4955687;28;20039;-57
2021/09/27 06:28:32;;;;;;;12.40;8.95;;;;;;;;;;4962166;28;20180;-56
2021/09/27 06:31:03;;;;;;;13.55;8.75;;;;;;;;;;4950856;28;20517;-56
2021/09/27 06:33:31;;;;;;;14.45;8.45;;;;;;;;;;4951867;28;20054;-57
2021/09/27 06:35:56;;;;;;;14.18;9.57;;;;;;;;;;4950642;28;20031;-57
2021/09/27 06:38:29;;;;;;;18.48;8.88;;;;;;;;;;4955805;28;20024;-57
2021/09/27 06:40:54;;;;;;;12.02;8.75;;;;;;;;;;4952248;28;20521;-57
2021/09/27 06:43:20;;;;;;;13.50;8.70;;;;;;;;;;4967887;28;20103;-57
2021/09/27 06:45:46;;;;;;;15.60;9.60;;;;;;;;;;4952418;28;20035;-57
2021/09/27 06:48:11;;;;;;;12.50;9.02;;;;;;;;;;4952216;28;20023;-57
2021/09/27 06:50:36;;;;;;;12.35;9.43;;;;;;;;;;4956387;28;20035;-57
2021/09/27 06:53:02;;;;;;;15.48;9.88;;;;;;;;;;4952185;28;20039;-57
2021/09/27 06:55:27;;;;;;;13.98;10.00;;;;;;;;;;4952280;28;20097;-57
2021/09/27 06:57:52;;;;;;;16.90;9.80;;;;;;;;;;4952568;28;20031;-57
2021/09/27 07:00:17;;;;;;;16.73;9.82;;;;;;;;;;4957877;28;20027;-57
2021/09/27 07:02:42;;;;;;;15.07;10.07;;;;;;;;;;4955542;28;20028;-57
2021/09/27 07:05:09;;;;;;;14.00;9.82;;;;;;;;;;4953799;28;20366;-57
2021/09/27 07:07:34;;;;;;;16.00;10.43;;;;;;;;;;4959545;28;20397;-57
2021/09/27 07:10:00;;;;;;;15.40;11.13;;;;;;;;;;4951743;28;20023;-57
2021/09/27 07:12:25;;;;;;;16.55;11.57;;;;;;;;;;4952874;28;20502;-57
2021/09/27 07:14:50;;;;;;;17.05;11.45;;;;;;;;;;4954395;28;20544;-57
2021/09/27 07:17:15;;;;;;;14.90;10.25;;;;;;;;;;4951479;28;20489;-57
2021/09/27 07:19:41;;;;;;;13.00;9.45;;;;;;;;;;4951793;28;20113;-57
2021/09/27 07:22:08;;;;;;;12.85;8.52;;;;;;;;;;4952161;28;20481;-57
2021/09/27 07:24:33;;;;;;;13.43;8.85;;;;;;;;;;4956631;28;20137;-57
2021/09/27 07:26:58;;;;;;;12.32;8.40;;;;;;;;;;4957167;28;20035;-57
2021/09/27 07:29:25;;;;;;;12.65;8.43;;;;;;;;;;4951248;28;20463;-57
2021/09/27 07:31:50;;;;;;;12.65;7.95;;;;;;;;;;4951436;28;20047;-57
2021/09/27 07:34:16;;;;;;;11.63;7.88;;;;;;;;;;4951935;28;20089;-57
2021/09/27 07:36:41;;;;;;;11.25;7.28;;;;;;;;;;4950605;28;20432;-57
2021/09/27 07:39:06;;;;;;;9.95;7.57;;;;;;;;;;4953730;28;20207;-58
2021/09/27 07:41:32;;;;;;;9.15;7.07;;;;;;;;;;4951237;28;20039;-57
2021/09/27 07:43:57;;;;;;;9.50;7.07;;;;;;;;;;4953757;28;20026;-57
2021/09/27 07:46:23;;;;;;;10.45;7.20;;;;;;;;;;4951243;28;20035;-57
2021/09/27 07:48:48;;;;;;;10.70;7.07;;;;;;;;;;4951754;28;20089;-57
2021/09/27 07:51:13;;;;;;;11.85;7.50;;;;;;;;;;4960697;28;20061;-58
2021/09/27 07:53:39;;;;;;;10.68;7.40;;;;;;;;;;4951468;28;20530;-58
2021/09/27 07:56:04;;;;;;;10.52;7.30;;;;;;;;;;4950706;28;20066;-58
2021/09/27 07:58:29;;;;;;;10.00;7.07;;;;;;;;;;4954116;28;20114;-58
2021/09/27 08:00:55;;;;;;;9.65;7.25;;;;;;;;;;4951164;28;20063;-57
2021/09/27 08:03:20;;;;;;;10.02;7.05;;;;;;;;;;4949930;28;20031;-58
2021/09/27 08:05:45;;;;;;;8.80;6.28;;;;;;;;;;4950147;28;20174;-57
2021/09/27 08:08:10;;;;;;;13.13;7.05;;;;;;;;;;4951493;28;20682;-59
2021/09/27 08:10:36;;;;;;;10.90;7.38;;;;;;;;;;4948964;28;20448;-57
2021/09/27 08:13:02;;;;;;;9.95;6.65;;;;;;;;;;4951327;28;20087;-57
2021/09/27 08:15:28;;;;;;;9.32;7.38;;;;;;;;;;4950399;28;20035;-57
2021/09/27 08:17:53;;;;;;;10.48;7.85;;;;;;;;;;4958372;28;20035;-59
2021/09/27 08:20:20;;;;;;;10.68;7.85;;;;;;;;;;4950416;28;20027;-56
2021/09/27 08:22:45;;;;;;;10.75;7.80;;;;;;;;;;4951394;28;20054;-60
2021/09/27 08:25:10;;;;;;;10.75;7.28;;;;;;;;;;4949866;28;20038;-57
2021/09/27 08:27:36;;;;;;;10.77;7.50;;;;;;;;;;4959103;28;20046;-58
2021/09/27 08:30:01;;;;;;;15.27;7.80;;;;;;;;;;4958373;28;20090;-57
2021/09/27 08:32:26;;;;;;;11.63;7.50;;;;;;;;;;4950734;28;20031;-58
2021/09/27 08:34:53;;;;;;;11.43;8.00;;;;;;;;;;4951165;28;20446;-58
2021/09/27 08:37:19;;;;;;;13.00;7.60;;;;;;;;;;4949524;28;20526;-58
2021/09/27 08:39:46;;;;;;;9.48;6.80;;;;;;;;;;4951599;28;20272;-58
2021/09/27 08:42:13;;;;;;;8.95;6.53;;;;;;;;;;4956924;28;20470;-58
2021/09/27 08:44:52;;;;;;;9.88;5.95;;;;;;;;;;4955723;28;20102;-58
2021/09/27 08:47:23;;;;;;;8.32;6.68;;;;;;;;;;4963224;28;20043;-57
2021/09/27 08:49:53;;;;;;;9.68;6.60;;;;;;;;;;4964814;28;20023;-56
2021/09/27 08:52:19;;;;;;;9.73;5.88;;;;;;;;;;4956687;28;20134;-56
2021/09/27 08:54:45;;;;;;;9.05;6.00;;;;;;;;;;4959347;28;20110;-57
2021/09/27 08:57:13;;;;;;;9.45;5.95;;;;;;;;;;4954877;28;20039;-57
2021/09/27 08:59:44;;;;;;;9.30;6.18;;;;;;;;;;4961902;28;20055;-57
2021/09/27 09:02:10;;;;;;;8.88;5.45;;;;;;;;;;4963993;28;20550;-57
2021/09/27 09:04:38;;;;;;;10.43;5.85;;;;;;;;;;4961283;28;20536;-57
2021/09/27 09:07:05;;;;;;;9.55;5.65;;;;;;;;;;4959428;28;20086;-57
2021/09/27 09:09:51;;;;;;;10.15;5.55;;;;;;;;;;4962576;28;20033;-57
2021/09/27 09:12:21;;;;;;;7.18;4.97;;;;;;;;;;4948840;28;20054;-57
2021/09/27 09:14:59;;;;;;;8.63;4.80;;;;;;;;;;4956988;28;20396;-57
2021/09/27 09:17:27;;;;;;;10.50;4.90;;;;;;;;;;4961022;28;20039;-57
2021/09/27 09:19:52;;;;;;;8.93;4.63;;;;;;;;;;4957525;28;20485;-57
2021/09/27 09:22:20;;;;;;;9.40;5.30;;;;;;;;;;4955938;28;20061;-57
2021/09/27 09:24:46;;;;;;;7.95;4.60;;;;;;;;;;4956295;28;20081;-57
2021/09/27 09:27:12;;;;;;;7.65;4.82;;;;;;;;;;4968152;28;21040;-57
2021/09/27 09:29:38;;;;;;;6.68;4.55;;;;;;;;;;4956172;28;20051;-57
2021/09/27 09:32:26;;;;;;;7.07;5.10;;;;;;;;;;4955623;28;20036;-57
2021/09/27 09:35:10;;;;;;;8.85;4.45;;;;;;;;;;4951144;28;20114;-57
2021/09/27 09:37:37;;;;;;;12.18;4.80;;;;;;;;;;4956761;28;20051;-58
2021/09/27 09:40:05;;;;;;;8.88;5.13;;;;;;;;;;4961698;28;20481;-57
2021/09/27 09:42:34;;;;;;;7.70;5.05;;;;;;;;;;4957762;28;20027;-57
2021/09/27 09:45:10;;;;;;;13.60;5.20;;;;;;;;;;4967115;28;20019;-57
2021/09/27 09:47:35;;;;;;;8.43;5.10;;;;;;;;;;4963032;28;20095;-57
2021/09/27 09:50:03;;;;;;;7.40;4.60;;;;;;;;;;4966746;28;20062;-56
2021/09/27 09:52:31;;;;;;;8.18;5.20;;;;;;;;;;4958655;28;20035;-57
2021/09/27 09:54:57;;;;;;;6.85;4.70;;;;;;;;;;4953618;28;20033;-57
2021/09/27 09:57:22;;;;;;;10.50;4.40;;;;;;;;;;4951749;28;20043;-57
2021/09/27 09:59:59;;;;;;;11.35;4.97;;;;;;;;;;4953864;28;20116;-57
2021/09/27 10:02:24;;;;;;;8.48;5.05;;;;;;;;;;4962230;28;20394;-57
2021/09/27 10:04:59;;;;;;;8.43;4.80;;;;;;;;;;4959999;28;20021;-57
2021/09/27 10:07:25;;;;;;;7.57;5.07;;;;;;;;;;4951647;28;20069;-57
2021/09/27 10:09:57;;;;;;;7.45;4.85;;;;;;;;;;4952365;28;20027;-57
2021/09/27 10:12:41;;;;;;;9.65;4.97;;;;;;;;;;4951601;28;20064;-57
2021/09/27 10:15:07;;;;;;;8.40;4.90;;;;;;;;;;4952245;28;20035;-57
2021/09/27 10:17:34;;;;;;;7.95;4.93;;;;;;;;;;4952231;28;20027;-57
2021/09/27 10:20:05;;;;;;;6.25;4.68;;;;;;;;;;4953669;28;20077;-57
2021/09/27 10:22:36;;;;;;;8.38;4.85;;;;;;;;;;4952610;28;20134;-57
2021/09/27 10:25:01;;;;;;;10.32;5.50;;;;;;;;;;4956509;28;20325;-56
2021/09/27 10:27:37;;;;;;;9.40;4.47;;;;;;;;;;4952650;28;20118;-57
2021/09/27 10:30:12;;;;;;;8.65;4.70;;;;;;;;;;4952191;28;20098;-57
2021/09/27 10:32:38;;;;;;;11.00;4.20;;;;;;;;;;4960739;28;20496;-57
2021/09/27 10:35:06;;;;;;;11.85;4.78;;;;;;;;;;4960663;28;20033;-57
2021/09/27 10:37:32;;;;;;;8.20;4.18;;;;;;;;;;4965968;28;20117;-57
2021/09/27 10:39:57;;;;;;;8.50;4.05;;;;;;;;;;4955487;28;20034;-57
2021/09/27 10:42:32;;;;;;;9.10;4.00;;;;;;;;;;4955298;28;20038;-57
2021/09/27 10:44:59;;;;;;;6.75;3.38;;;;;;;;;;4954577;28;20023;-57
2021/09/27 10:47:25;;;;;;;8.43;3.50;;;;;;;;;;4954267;28;20043;-56
2021/09/27 10:50:06;;;;;;;8.13;3.53;;;;;;;;;;4958527;28;20109;-56
2021/09/27 10:52:34;;;;;;;8.82;3.60;;;;;;;;;;4956026;28;20429;-56
2021/09/27 10:55:02;;;;;;;11.10;3.90;;;;;;;;;;4960357;28;20050;-56
2021/09/27 10:57:46;;;;;;;5.85;3.78;;;;;;;;;;4957962;28;20074;-58
2021/09/27 11:00:15;;;;;;;6.97;3.85;;;;;;;;;;4950566;28;20466;-56
2021/09/27 11:02:42;;;;;;;7.13;3.38;;;;;;;;;;4960697;28;20818;-56
2021/09/27 11:05:22;;;;;;;8.15;3.70;;;;;;;;;;4952357;28;20039;-56
2021/09/27 11:07:49;;;;;;;4.80;3.42;;;;;;;;;;4959188;28;20026;-56
2021/09/27 11:10:19;;;;;;;7.65;3.53;;;;;;;;;;4958026;28;20031;-57
2021/09/27 11:12:47;;;;;;;7.90;3.42;;;;;;;;;;4958121;28;20596;-57
2021/09/27 11:15:15;;;;;;;5.20;3.60;;;;;;;;;;4952178;28;20070;-57
2021/09/27 11:17:43;;;;;;;7.05;4.03;;;;;;;;;;4960127;28;20466;-57
2021/09/27 11:20:15;;;;;;;7.35;3.55;;;;;;;;;;4953085;28;20106;-57
2021/09/27 11:22:55;;;;;;;9.15;4.35;;;;;;;;;;4954438;28;20022;-57
2021/09/27 11:25:20;;;;;;;7.50;3.90;;;;;;;;;;4955454;28;20043;-57
2021/09/27 11:28:02;;;;;;;6.55;4.30;;;;;;;;;;4954307;28;20054;-56
2021/09/27 11:30:46;;;;;;;6.38;3.65;;;;;;;;;;4953409;28;20829;-57
2021/09/27 11:33:18;;;;;;;6.93;3.67;;;;;;;;;;4959337;28;20041;-56
2021/09/27 11:35:43;;;;;;;6.95;4.07;;;;;;;;;;4952866;28;20409;-57
2021/09/27 11:38:15;;;;;;;7.47;3.95;;;;;;;;;;4960212;28;20050;-57
2021/09/27 11:40:40;;;;;;;8.45;4.10;;;;;;;;;;4956392;28;20039;-57
2021/09/27 11:43:12;;;;;;;5.78;3.40;;;;;;;;;;4949692;28;20034;-57
2021/09/27 11:45:55;;;;;;;5.90;3.60;;;;;;;;;;4951272;28;20074;-57
2021/09/27 11:48:20;;;;;;;8.25;3.53;;;;;;;;;;4960618;28;20030;-57
2021/09/27 11:51:02;;;;;;;5.88;3.97;;;;;;;;;;4956078;28;20174;-57
2021/09/27 11:53:27;;;;;;;8.27;3.58;;;;;;;;;;4953621;28;20266;-57
2021/09/27 11:56:00;;;;;;;5.68;3.20;;;;;;;;;;4951849;28;20043;-57
2021/09/27 11:58:38;;;;;;;5.55;3.60;;;;;;;;;;4950223;28;20039;-57
2021/09/27 12:01:20;;;;;;;5.32;3.63;;;;;;;;;;4954728;28;20031;-57
2021/09/27 12:03:56;;;;;;;7.50;3.67;;;;;;;;;;4951611;28;20462;-57
2021/09/27 12:06:24;;;;;;;6.25;3.78;;;;;;;;;;4955078;28;20043;-57
2021/09/27 12:08:52;;;;;;;9.30;3.72;;;;;;;;;;4950947;28;20031;-57
2021/09/27 12:11:18;;;;;;;8.77;3.80;;;;;;;;;;4951026;28;20500;-57
2021/09/27 12:13:43;;;;;;;6.57;3.88;;;;;;;;;;4957635;28;20039;-57
2021/09/27 12:16:12;;;;;;;7.20;3.92;;;;;;;;;;4950339;28;20090;-57
2021/09/27 12:18:45;;;;;;;7.63;4.25;;;;;;;;;;4954044;28;20031;-57
2021/09/27 12:21:15;;;;;;;9.77;4.00;;;;;;;;;;4950596;28;20127;-57
2021/09/27 12:23:42;;;;;;;7.78;3.70;;;;;;;;;;4955491;28;20023;-57
2021/09/27 12:26:07;;;;;;;7.10;4.00;;;;;;;;;;4960931;28;20086;-57
2021/09/27 12:28:32;;;;;;;6.65;4.07;;;;;;;;;;4952633;28;20039;-57
2021/09/27 12:30:58;;;;;;;8.15;3.92;;;;;;;;;;4950375;28;20041;-57
2021/09/27 12:33:26;;;;;;;7.40;3.83;;;;;;;;;;4955756;28;20094;-57
2021/09/27 12:36:02;;;;;;;9.13;4.07;;;;;;;;;;4959215;28;20046;-57
2021/09/27 12:38:27;;;;;;;7.65;3.67;;;;;;;;;;4960267;28;20039;-57
2021/09/27 12:40:52;;;;;;;6.88;3.60;;;;;;;;;;4951143;28;20027;-57
2021/09/27 12:43:22;;;;;;;7.65;3.67;;;;;;;;;;4958408;28;20030;-57
2021/09/27 12:45:48;;;;;;;10.20;4.30;;;;;;;;;;4951502;28;20042;-57
2021/09/27 12:48:15;;;;;;;6.43;4.18;;;;;;;;;;4953895;28;20023;-57
2021/09/27 12:50:41;;;;;;;6.30;3.70;;;;;;;;;;4951107;28;20041;-57
2021/09/27 12:53:08;;;;;;;6.03;3.47;;;;;;;;;;4939043;28;20142;-57
2021/09/27 12:55:46;;;;;;;8.10;3.58;;;;;;;;;;4950080;28;20082;-57
2021/09/27 12:58:33;;;;;;;8.98;3.45;;;;;;;;;;4955052;28;20712;-57
2021/09/27 13:00:58;;;;;;;7.50;3.30;;;;;;;;;;4950083;28;20082;-57
2021/09/27 13:03:25;;;;;;;9.45;3.63;;;;;;;;;;4955934;28;20535;-57
2021/09/27 13:06:11;;;;;;;8.13;3.38;;;;;;;;;;4949644;28;20031;-57
2021/09/27 13:08:49;;;;;;;7.38;3.50;;;;;;;;;;4941355;28;20047;-57
2021/09/27 13:11:20;;;;;;;6.90;3.25;;;;;;;;;;4949653;28;20106;-57
2021/09/27 13:13:55;;;;;;;5.82;3.20;;;;;;;;;;4954636;28;20086;-57
2021/09/27 13:16:21;;;;;;;5.78;3.40;;;;;;;;;;4953762;28;20035;-57
2021/09/27 13:18:47;;;;;;;6.93;3.28;;;;;;;;;;4951182;28;20034;-57
2021/09/27 13:21:12;;;;;;;6.97;3.45;;;;;;;;;;4949547;28;20039;-57
2021/09/27 13:23:59;;;;;;;7.90;3.40;;;;;;;;;;4953366;28;20098;-57
2021/09/27 13:26:30;;;;;;;7.10;3.67;;;;;;;;;;4955561;28;20047;-57
2021/09/27 13:28:57;;;;;;;6.93;3.60;;;;;;;;;;4955819;28;20413;-57
2021/09/27 13:31:24;;;;;;;9.00;3.45;;;;;;;;;;4957940;28;20067;-57
2021/09/27 13:33:53;;;;;;;6.47;3.50;;;;;;;;;;4955691;28;20033;-57
2021/09/27 13:36:35;;;;;;;8.52;3.38;;;;;;;;;;4957384;28;20039;-57
2021/09/27 13:39:08;;;;;;;7.10;3.30;;;;;;;;;;4963213;28;20110;-57
2021/09/27 13:41:50;;;;;;;8.02;3.42;;;;;;;;;;4962681;28;20149;-57
2021/09/27 13:44:34;;;;;;;5.88;3.20;;;;;;;;;;4959202;28;20057;-57
2021/09/27 13:47:01;;;;;;;7.72;3.55;;;;;;;;;;4955036;28;20058;-58
2021/09/27 13:49:26;;;;;;;7.70;3.35;;;;;;;;;;4957050;28;20042;-56
2021/09/27 13:51:51;;;;;;;6.47;3.45;;;;;;;;;;4954456;28;20038;-58
2021/09/27 13:54:16;;;;;;;6.18;3.72;;;;;;;;;;4964506;28;20042;-57
2021/09/27 13:56:42;;;;;;;7.68;3.67;;;;;;;;;;4958402;28;20039;-57
2021/09/27 13:59:07;;;;;;;5.07;3.00;;;;;;;;;;4951881;28;20047;-57
2021/09/27 14:01:32;;;;;;;9.48;3.55;;;;;;;;;;4951745;28;20121;-57
2021/09/27 14:03:57;;;;;;;5.95;3.15;;;;;;;;;;4953484;28;20031;-57
2021/09/27 14:06:24;;;;;;;6.82;3.15;;;;;;;;;;4952222;28;20082;-57
2021/09/27 14:08:49;;;;;;;6.80;3.03;;;;;;;;;;4956883;28;20026;-57
2021/09/27 14:11:14;;;;;;;7.28;3.05;;;;;;;;;;4953032;28;20437;-57
2021/09/27 14:13:41;;;;;;;5.95;3.10;;;;;;;;;;4959076;28;20039;-57
2021/09/27 14:16:07;;;;;;;6.90;2.97;;;;;;;;;;4952215;28;20509;-57
2021/09/27 14:18:33;;;;;;;6.47;2.90;;;;;;;;;;4953352;28;20114;-57
2021/09/27 14:20:58;;;;;;;7.10;3.03;;;;;;;;;;4951386;28;20458;-57
2021/09/27 14:23:23;;;;;;;11.43;3.78;;;;;;;;;;4959468;28;20023;-58
2021/09/27 14:25:49;;;;;;;8.20;2.80;;;;;;;;;;4957262;28;20086;-57
2021/09/27 14:28:14;;;;;;;7.18;3.08;;;;;;;;;;4960966;28;20101;-57
2021/09/27 14:30:41;;;;;;;6.07;3.05;;;;;;;;;;4956002;28;20043;-57
2021/09/27 14:33:06;;;;;;;8.00;3.40;;;;;;;;;;4952554;28;20043;-58
2021/09/27 14:35:33;;;;;;;9.90;2.70;;;;;;;;;;4952633;28;20043;-57
2021/09/27 14:37:58;;;;;;;6.63;2.85;;;;;;;;;;4952010;28;20077;-58
2021/09/27 14:40:24;;;;;;;7.65;3.38;;;;;;;;;;4959656;28;20486;-57
2021/09/27 14:42:49;;;;;;;6.47;3.50;;;;;;;;;;4958484;28;20078;-57
2021/09/27 14:45:14;;;;;;;7.25;3.53;;;;;;;;;;4953891;28;20023;-58
2021/09/27 14:47:39;;;;;;;6.15;3.13;;;;;;;;;;4950995;28;20023;-57